sensor_id;sensor_type;location;lat;lon;timestamp;pressure;altitude;pressure_sealevel;temperature;humidity
46241;BME280;31961;52.416;-0.732;2023-02-26T00:01:27;101471.24;;;-0.10;100.00
46241;BME280;31961;52.416;-0.732;2023-02-26T00:03:56;101473.62;;;-0.07;100.00
46241;BME280;31961;52.416;-0.732;2023-02-26T00:06:25;101475.22;;;-0.07;100.00
46241;BME280;31961;52.416;-0.732;2023-02-26T00:08:52;101477.59;;;-0.14;100.00
46241;BME280;31961;52.416;-0.732;2023-02-26T00:11:20;101481.71;;;-0.47;100.00
46241;BME280;31961;52.416;-0.732;2023-02-26T00:13:48;101479.46;;;-0.42;100.00
46241;BME280;31961;52.416;-0.732;2023-02-26T00:16:26;101477.42;;;-0.24;100.00
46241;BME280;31961;52.416;-0.732;2023-02-26T00:18:53;101482.22;;;-0.43;100.00
46241;BME280;31961;52.416;-0.732;2023-02-26T00:21:22;101487.28;;;-0.70;100.00
46241;BME280;31961;52.416;-0.732;2023-02-26T00:23:50;101493.30;;;-0.27;100.00
46241;BME280;31961;52.416;-0.732;2023-02-26T00:26:18;101492.39;;;-0.40;100.00
46241;BME280;31961;52.416;-0.732;2023-02-26T00:28:46;101496.10;;;0.22;100.00
46241;BME280;31961;52.416;-0.732;2023-02-26T00:31:14;101499.24;;;-0.17;100.00
46241;BME280;31961;52.416;-0.732;2023-02-26T00:33:43;101499.45;;;0.51;100.00
46241;BME280;31961;52.416;-0.732;2023-02-26T00:36:19;101496.11;;;0.47;100.00
46241;BME280;31961;52.416;-0.732;2023-02-26T00:38:55;101501.59;;;0.67;100.00
46241;BME280;31961;52.416;-0.732;2023-02-26T00:41:26;101501.00;;;-0.08;100.00
46241;BME280;31961;52.416;-0.732;2023-02-26T00:43:54;101501.89;;;-0.07;100.00
46241;BME280;31961;52.416;-0.732;2023-02-26T00:46:30;101494.65;;;0.22;100.00
46241;BME280;31961;52.416;-0.732;2023-02-26T00:49:08;101501.04;;;-0.09;100.00
46241;BME280;31961;52.416;-0.732;2023-02-26T00:51:45;101492.36;;;0.31;100.00
46241;BME280;31961;52.416;-0.732;2023-02-26T00:54:18;101495.14;;;1.22;100.00
46241;BME280;31961;52.416;-0.732;2023-02-26T00:56:46;101499.64;;;0.75;100.00
46241;BME280;31961;52.416;-0.732;2023-02-26T00:59:13;101506.59;;;1.14;100.00
46241;BME280;31961;52.416;-0.732;2023-02-26T01:01:41;101501.33;;;1.08;100.00
46241;BME280;31961;52.416;-0.732;2023-02-26T01:04:10;101499.34;;;0.78;100.00
46241;BME280;31961;52.416;-0.732;2023-02-26T01:06:41;101503.16;;;-0.10;100.00
46241;BME280;31961;52.416;-0.732;2023-02-26T01:09:15;101505.23;;;0.26;100.00
46241;BME280;31961;52.416;-0.732;2023-02-26T01:11:44;101506.02;;;0.02;100.00
46241;BME280;31961;52.416;-0.732;2023-02-26T01:14:11;101511.10;;;-0.38;100.00
46241;BME280;31961;52.416;-0.732;2023-02-26T01:16:45;101509.36;;;-1.16;100.00
46241;BME280;31961;52.416;-0.732;2023-02-26T01:19:21;101510.22;;;-1.04;100.00
46241;BME280;31961;52.416;-0.732;2023-02-26T01:21:55;101505.44;;;-0.30;100.00
46241;BME280;31961;52.416;-0.732;2023-02-26T01:24:26;101509.37;;;0.01;100.00
46241;BME280;31961;52.416;-0.732;2023-02-26T01:26:55;101507.31;;;-0.56;100.00
46241;BME280;31961;52.416;-0.732;2023-02-26T01:29:23;101512.99;;;-0.99;100.00
46241;BME280;31961;52.416;-0.732;2023-02-26T01:31:55;101514.08;;;-0.51;100.00
46241;BME280;31961;52.416;-0.732;2023-02-26T01:34:28;101510.70;;;-0.59;100.00
46241;BME280;31961;52.416;-0.732;2023-02-26T01:37:06;101514.81;;;-0.55;100.00
46241;BME280;31961;52.416;-0.732;2023-02-26T01:39:42;101518.48;;;-0.80;100.00
46241;BME280;31961;52.416;-0.732;2023-02-26T01:42:15;101522.64;;;-0.78;100.00
46241;BME280;31961;52.416;-0.732;2023-02-26T01:44:54;101531.20;;;0.50;100.00
46241;BME280;31961;52.416;-0.732;2023-02-26T01:47:27;101535.14;;;1.03;100.00
46241;BME280;31961;52.416;-0.732;2023-02-26T01:49:58;101536.56;;;0.61;100.00
46241;BME280;31961;52.416;-0.732;2023-02-26T01:53:39;101548.16;;;2.07;100.00
46241;BME280;31961;52.416;-0.732;2023-02-26T01:56:10;101543.16;;;1.06;100.00
46241;BME280;31961;52.416;-0.732;2023-02-26T01:58:39;101544.61;;;1.23;100.00
46241;BME280;31961;52.416;-0.732;2023-02-26T02:01:07;101551.82;;;1.87;100.00
46241;BME280;31961;52.416;-0.732;2023-02-26T02:03:38;101545.05;;;1.73;100.00
46241;BME280;31961;52.416;-0.732;2023-02-26T02:06:08;101544.75;;;0.78;100.00
46241;BME280;31961;52.416;-0.732;2023-02-26T02:08:35;101551.00;;;1.02;100.00
46241;BME280;31961;52.416;-0.732;2023-02-26T02:11:03;101542.71;;;0.84;100.00
46241;BME280;31961;52.416;-0.732;2023-02-26T02:13:40;101540.60;;;0.49;100.00
46241;BME280;31961;52.416;-0.732;2023-02-26T02:16:18;101540.52;;;0.53;100.00
46241;BME280;31961;52.416;-0.732;2023-02-26T02:18:54;101543.53;;;1.07;100.00
46241;BME280;31961;52.416;-0.732;2023-02-26T02:21:33;101542.16;;;1.20;100.00
46241;BME280;31961;52.416;-0.732;2023-02-26T02:24:11;101547.97;;;1.07;100.00
46241;BME280;31961;52.416;-0.732;2023-02-26T02:26:52;101548.00;;;1.61;100.00
46241;BME280;31961;52.416;-0.732;2023-02-26T02:30:34;101547.64;;;1.40;100.00
46241;BME280;31961;52.416;-0.732;2023-02-26T02:33:10;101546.45;;;0.42;100.00
46241;BME280;31961;52.416;-0.732;2023-02-26T02:35:41;101551.05;;;0.65;100.00
46241;BME280;31961;52.416;-0.732;2023-02-26T02:38:13;101555.95;;;0.87;100.00
46241;BME280;31961;52.416;-0.732;2023-02-26T02:40:47;101552.84;;;0.53;100.00
46241;BME280;31961;52.416;-0.732;2023-02-26T02:43:17;101556.05;;;0.82;100.00
46241;BME280;31961;52.416;-0.732;2023-02-26T02:45:48;101558.37;;;0.51;100.00
46241;BME280;31961;52.416;-0.732;2023-02-26T02:48:20;101556.02;;;0.49;100.00
46241;BME280;31961;52.416;-0.732;2023-02-26T02:50:52;101555.59;;;0.55;100.00
46241;BME280;31961;52.416;-0.732;2023-02-26T02:53:23;101560.22;;;-0.17;100.00
46241;BME280;31961;52.416;-0.732;2023-02-26T02:55:56;101557.64;;;0.37;100.00
46241;BME280;31961;52.416;-0.732;2023-02-26T02:58:27;101565.01;;;-0.24;100.00
46241;BME280;31961;52.416;-0.732;2023-02-26T03:01:00;101566.68;;;-0.64;100.00
46241;BME280;31961;52.416;-0.732;2023-02-26T03:03:33;101566.31;;;-1.09;100.00
46241;BME280;31961;52.416;-0.732;2023-02-26T03:06:01;101566.41;;;-0.40;100.00
46241;BME280;31961;52.416;-0.732;2023-02-26T03:08:33;101568.58;;;-0.25;100.00
46241;BME280;31961;52.416;-0.732;2023-02-26T03:11:02;101570.33;;;-0.74;100.00
46241;BME280;31961;52.416;-0.732;2023-02-26T03:13:30;101577.26;;;-0.67;100.00
46241;BME280;31961;52.416;-0.732;2023-02-26T03:16:08;101571.56;;;-0.54;100.00
46241;BME280;31961;52.416;-0.732;2023-02-26T03:18:48;101572.79;;;-0.22;100.00
46241;BME280;31961;52.416;-0.732;2023-02-26T03:21:20;101572.98;;;-0.02;100.00
46241;BME280;31961;52.416;-0.732;2023-02-26T03:24:00;101565.83;;;-0.37;100.00
46241;BME280;31961;52.416;-0.732;2023-02-26T03:26:35;101569.60;;;-0.73;100.00
46241;BME280;31961;52.416;-0.732;2023-02-26T03:29:09;101574.81;;;-0.57;100.00
46241;BME280;31961;52.416;-0.732;2023-02-26T03:31:42;101576.71;;;-0.36;100.00
46241;BME280;31961;52.416;-0.732;2023-02-26T03:34:16;101566.93;;;0.52;100.00
46241;BME280;31961;52.416;-0.732;2023-02-26T03:36:47;101567.89;;;0.56;100.00
46241;BME280;31961;52.416;-0.732;2023-02-26T03:39:21;101571.95;;;0.23;100.00
46241;BME280;31961;52.416;-0.732;2023-02-26T03:41:55;101573.19;;;-0.12;100.00
46241;BME280;31961;52.416;-0.732;2023-02-26T03:44:26;101579.72;;;0.23;100.00
46241;BME280;31961;52.416;-0.732;2023-02-26T03:47:02;101580.34;;;0.17;100.00
46241;BME280;31961;52.416;-0.732;2023-02-26T03:49:35;101586.18;;;0.10;100.00
46241;BME280;31961;52.416;-0.732;2023-02-26T03:52:04;101584.65;;;0.28;100.00
46241;BME280;31961;52.416;-0.732;2023-02-26T03:54:34;101591.46;;;0.11;100.00
46241;BME280;31961;52.416;-0.732;2023-02-26T03:57:03;101598.98;;;-0.40;100.00
46241;BME280;31961;52.416;-0.732;2023-02-26T03:59:32;101593.21;;;0.69;100.00
46241;BME280;31961;52.416;-0.732;2023-02-26T04:02:03;101590.24;;;0.46;100.00
46241;BME280;31961;52.416;-0.732;2023-02-26T04:04:33;101591.84;;;0.74;100.00
46241;BME280;31961;52.416;-0.732;2023-02-26T04:07:02;101595.77;;;1.29;100.00
46241;BME280;31961;52.416;-0.732;2023-02-26T04:09:29;101602.89;;;0.54;100.00
46241;BME280;31961;52.416;-0.732;2023-02-26T04:11:57;101598.69;;;0.89;100.00
46241;BME280;31961;52.416;-0.732;2023-02-26T04:14:24;101600.20;;;0.13;100.00
46241;BME280;31961;52.416;-0.732;2023-02-26T04:16:51;101603.46;;;0.46;100.00
46241;BME280;31961;52.416;-0.732;2023-02-26T04:19:19;101604.97;;;0.72;100.00
46241;BME280;31961;52.416;-0.732;2023-02-26T04:21:46;101615.74;;;0.31;100.00
46241;BME280;31961;52.416;-0.732;2023-02-26T04:24:13;101619.78;;;-0.12;100.00
46241;BME280;31961;52.416;-0.732;2023-02-26T04:26:40;101617.42;;;-0.18;100.00
46241;BME280;31961;52.416;-0.732;2023-02-26T04:29:07;101622.37;;;-0.50;100.00
46241;BME280;31961;52.416;-0.732;2023-02-26T04:31:35;101624.68;;;-0.06;100.00
46241;BME280;31961;52.416;-0.732;2023-02-26T04:34:03;101622.29;;;0.12;100.00
46241;BME280;31961;52.416;-0.732;2023-02-26T04:36:30;101625.16;;;-0.00;100.00
46241;BME280;31961;52.416;-0.732;2023-02-26T04:38:58;101624.85;;;0.57;100.00
46241;BME280;31961;52.416;-0.732;2023-02-26T04:41:25;101622.66;;;0.78;100.00
46241;BME280;31961;52.416;-0.732;2023-02-26T04:43:53;101627.83;;;0.46;100.00
46241;BME280;31961;52.416;-0.732;2023-02-26T04:46:21;101628.32;;;0.73;100.00
46241;BME280;31961;52.416;-0.732;2023-02-26T04:48:47;101634.24;;;0.83;100.00
46241;BME280;31961;52.416;-0.732;2023-02-26T04:51:15;101638.78;;;0.33;100.00
46241;BME280;31961;52.416;-0.732;2023-02-26T04:53:42;101638.94;;;0.80;100.00
46241;BME280;31961;52.416;-0.732;2023-02-26T04:56:09;101638.07;;;-0.04;100.00
46241;BME280;31961;52.416;-0.732;2023-02-26T04:58:36;101637.54;;;0.62;100.00
46241;BME280;31961;52.416;-0.732;2023-02-26T05:01:03;101641.38;;;0.58;100.00
46241;BME280;31961;52.416;-0.732;2023-02-26T05:03:31;101647.44;;;0.19;100.00
46241;BME280;31961;52.416;-0.732;2023-02-26T05:05:58;101644.76;;;-0.05;100.00
46241;BME280;31961;52.416;-0.732;2023-02-26T05:08:26;101649.33;;;-0.63;100.00
46241;BME280;31961;52.416;-0.732;2023-02-26T05:10:53;101647.25;;;-0.07;100.00
46241;BME280;31961;52.416;-0.732;2023-02-26T05:13:20;101649.98;;;-0.70;100.00
46241;BME280;31961;52.416;-0.732;2023-02-26T05:15:48;101654.22;;;0.07;100.00
46241;BME280;31961;52.416;-0.732;2023-02-26T05:18:15;101662.21;;;0.11;100.00
46241;BME280;31961;52.416;-0.732;2023-02-26T05:20:42;101663.29;;;0.18;100.00
46241;BME280;31961;52.416;-0.732;2023-02-26T05:23:09;101666.25;;;0.36;100.00
46241;BME280;31961;52.416;-0.732;2023-02-26T05:25:36;101663.39;;;1.77;100.00
46241;BME280;31961;52.416;-0.732;2023-02-26T05:28:04;101661.10;;;1.88;100.00
46241;BME280;31961;52.416;-0.732;2023-02-26T05:30:32;101660.77;;;1.00;100.00
46241;BME280;31961;52.416;-0.732;2023-02-26T05:32:59;101663.53;;;1.08;100.00
46241;BME280;31961;52.416;-0.732;2023-02-26T05:35:27;101663.20;;;1.81;100.00
46241;BME280;31961;52.416;-0.732;2023-02-26T05:37:54;101666.43;;;0.99;100.00
46241;BME280;31961;52.416;-0.732;2023-02-26T05:40:23;101665.91;;;1.41;100.00
46241;BME280;31961;52.416;-0.732;2023-02-26T05:42:50;101674.80;;;1.42;100.00
46241;BME280;31961;52.416;-0.732;2023-02-26T05:45:18;101681.85;;;1.75;100.00
46241;BME280;31961;52.416;-0.732;2023-02-26T05:47:46;101702.03;;;0.40;100.00
46241;BME280;31961;52.416;-0.732;2023-02-26T05:50:13;101699.06;;;1.40;100.00
46241;BME280;31961;52.416;-0.732;2023-02-26T05:52:40;101696.96;;;0.46;100.00
46241;BME280;31961;52.416;-0.732;2023-02-26T05:55:09;101696.44;;;0.15;100.00
46241;BME280;31961;52.416;-0.732;2023-02-26T05:57:36;101694.68;;;0.81;100.00
46241;BME280;31961;52.416;-0.732;2023-02-26T06:00:06;101693.25;;;0.48;100.00
46241;BME280;31961;52.416;-0.732;2023-02-26T06:02:34;101695.93;;;0.44;100.00
46241;BME280;31961;52.416;-0.732;2023-02-26T06:05:02;101687.88;;;0.99;100.00
46241;BME280;31961;52.416;-0.732;2023-02-26T06:07:29;101692.06;;;1.19;100.00
46241;BME280;31961;52.416;-0.732;2023-02-26T06:09:57;101692.99;;;1.14;100.00
46241;BME280;31961;52.416;-0.732;2023-02-26T06:12:23;101698.07;;;1.46;100.00
46241;BME280;31961;52.416;-0.732;2023-02-26T06:14:51;101702.96;;;0.35;100.00
46241;BME280;31961;52.416;-0.732;2023-02-26T06:17:19;101708.66;;;0.97;100.00
46241;BME280;31961;52.416;-0.732;2023-02-26T06:19:46;101708.15;;;1.06;100.00
46241;BME280;31961;52.416;-0.732;2023-02-26T06:22:13;101713.09;;;0.79;100.00
46241;BME280;31961;52.416;-0.732;2023-02-26T06:24:41;101715.73;;;0.35;100.00
46241;BME280;31961;52.416;-0.732;2023-02-26T06:27:07;101718.08;;;1.13;100.00
46241;BME280;31961;52.416;-0.732;2023-02-26T06:29:34;101722.30;;;0.86;100.00
46241;BME280;31961;52.416;-0.732;2023-02-26T06:32:02;101722.77;;;1.57;100.00
46241;BME280;31961;52.416;-0.732;2023-02-26T06:34:29;101727.31;;;1.32;100.00
46241;BME280;31961;52.416;-0.732;2023-02-26T06:36:57;101728.14;;;0.72;100.00
46241;BME280;31961;52.416;-0.732;2023-02-26T06:39:25;101730.02;;;0.72;100.00
46241;BME280;31961;52.416;-0.732;2023-02-26T06:41:52;101728.80;;;1.08;100.00
46241;BME280;31961;52.416;-0.732;2023-02-26T06:44:20;101729.52;;;1.40;100.00
46241;BME280;31961;52.416;-0.732;2023-02-26T06:46:47;101733.46;;;0.58;100.00
46241;BME280;31961;52.416;-0.732;2023-02-26T06:49:14;101740.52;;;1.19;100.00
46241;BME280;31961;52.416;-0.732;2023-02-26T06:51:42;101740.19;;;-0.03;100.00
46241;BME280;31961;52.416;-0.732;2023-02-26T06:54:09;101741.75;;;0.22;100.00
46241;BME280;31961;52.416;-0.732;2023-02-26T06:56:37;101742.68;;;0.71;100.00
46241;BME280;31961;52.416;-0.732;2023-02-26T06:59:04;101747.68;;;-0.31;100.00
46241;BME280;31961;52.416;-0.732;2023-02-26T07:01:31;101752.60;;;0.63;100.00
46241;BME280;31961;52.416;-0.732;2023-02-26T07:03:59;101760.62;;;0.27;100.00
46241;BME280;31961;52.416;-0.732;2023-02-26T07:06:26;101760.29;;;-0.16;100.00
46241;BME280;31961;52.416;-0.732;2023-02-26T07:08:54;101769.21;;;0.22;100.00
46241;BME280;31961;52.416;-0.732;2023-02-26T07:11:20;101769.00;;;0.67;100.00
46241;BME280;31961;52.416;-0.732;2023-02-26T07:13:48;101771.25;;;0.72;100.00
46241;BME280;31961;52.416;-0.732;2023-02-26T07:16:15;101776.59;;;0.14;100.00
46241;BME280;31961;52.416;-0.732;2023-02-26T07:18:42;101778.13;;;0.40;100.00
46241;BME280;31961;52.416;-0.732;2023-02-26T07:21:09;101778.26;;;0.34;100.00
46241;BME280;31961;52.416;-0.732;2023-02-26T07:23:36;101788.23;;;-0.13;100.00
46241;BME280;31961;52.416;-0.732;2023-02-26T07:26:03;101786.48;;;-0.29;100.00
46241;BME280;31961;52.416;-0.732;2023-02-26T07:28:30;101792.55;;;0.73;100.00
46241;BME280;31961;52.416;-0.732;2023-02-26T07:30:57;101791.87;;;0.47;100.00
46241;BME280;31961;52.416;-0.732;2023-02-26T07:33:25;101790.95;;;0.93;100.00
46241;BME280;31961;52.416;-0.732;2023-02-26T07:35:53;101794.98;;;0.44;100.00
46241;BME280;31961;52.416;-0.732;2023-02-26T07:38:20;101792.95;;;1.02;100.00
46241;BME280;31961;52.416;-0.732;2023-02-26T07:40:48;101794.20;;;1.43;100.00
46241;BME280;31961;52.416;-0.732;2023-02-26T07:43:15;101794.58;;;0.73;100.00
46241;BME280;31961;52.416;-0.732;2023-02-26T07:45:43;101792.56;;;1.24;100.00
46241;BME280;31961;52.416;-0.732;2023-02-26T07:48:10;101796.95;;;0.61;100.00
46241;BME280;31961;52.416;-0.732;2023-02-26T07:50:36;101798.35;;;1.05;100.00
46241;BME280;31961;52.416;-0.732;2023-02-26T07:53:04;101803.75;;;1.20;100.00
46241;BME280;31961;52.416;-0.732;2023-02-26T07:55:32;101806.81;;;1.74;100.00
46241;BME280;31961;52.416;-0.732;2023-02-26T07:57:59;101813.93;;;0.79;100.00
46241;BME280;31961;52.416;-0.732;2023-02-26T08:00:26;101824.47;;;1.41;100.00
46241;BME280;31961;52.416;-0.732;2023-02-26T08:02:54;101824.46;;;1.44;100.00
46241;BME280;31961;52.416;-0.732;2023-02-26T08:05:21;101829.29;;;1.38;100.00
46241;BME280;31961;52.416;-0.732;2023-02-26T08:07:48;101826.65;;;2.02;100.00
46241;BME280;31961;52.416;-0.732;2023-02-26T08:10:15;101827.58;;;1.64;100.00
46241;BME280;31961;52.416;-0.732;2023-02-26T08:12:42;101829.32;;;2.60;100.00
46241;BME280;31961;52.416;-0.732;2023-02-26T08:15:11;101831.16;;;1.84;100.00
46241;BME280;31961;52.416;-0.732;2023-02-26T08:17:38;101834.81;;;1.47;100.00
46241;BME280;31961;52.416;-0.732;2023-02-26T08:20:06;101840.38;;;2.07;100.00
46241;BME280;31961;52.416;-0.732;2023-02-26T08:22:34;101840.77;;;2.21;100.00
46241;BME280;31961;52.416;-0.732;2023-02-26T08:25:01;101840.68;;;1.91;100.00
46241;BME280;31961;52.416;-0.732;2023-02-26T08:27:29;101848.21;;;2.68;100.00
46241;BME280;31961;52.416;-0.732;2023-02-26T08:29:56;101850.48;;;2.18;100.00
46241;BME280;31961;52.416;-0.732;2023-02-26T08:32:23;101853.93;;;3.23;100.00
46241;BME280;31961;52.416;-0.732;2023-02-26T08:34:51;101862.03;;;2.54;100.00
46241;BME280;31961;52.416;-0.732;2023-02-26T08:37:18;101863.25;;;2.43;100.00
46241;BME280;31961;52.416;-0.732;2023-02-26T08:39:46;101864.48;;;2.48;100.00
46241;BME280;31961;52.416;-0.732;2023-02-26T08:42:12;101865.69;;;2.72;100.00
46241;BME280;31961;52.416;-0.732;2023-02-26T08:44:39;101869.74;;;2.17;100.00
46241;BME280;31961;52.416;-0.732;2023-02-26T08:47:06;101877.69;;;2.78;100.00
46241;BME280;31961;52.416;-0.732;2023-02-26T08:49:34;101875.16;;;1.83;100.00
46241;BME280;31961;52.416;-0.732;2023-02-26T08:52:01;101880.30;;;1.55;100.00
46241;BME280;31961;52.416;-0.732;2023-02-26T08:54:29;101874.20;;;1.92;100.00
46241;BME280;31961;52.416;-0.732;2023-02-26T08:56:56;101877.09;;;2.79;100.00
46241;BME280;31961;52.416;-0.732;2023-02-26T08:59:24;101875.99;;;1.69;100.00
46241;BME280;31961;52.416;-0.732;2023-02-26T09:01:52;101877.15;;;2.44;100.00
46241;BME280;31961;52.416;-0.732;2023-02-26T09:04:19;101882.32;;;3.55;100.00
46241;BME280;31961;52.416;-0.732;2023-02-26T09:06:47;101885.02;;;1.85;100.00
46241;BME280;31961;52.416;-0.732;2023-02-26T09:09:15;101895.41;;;1.32;100.00
46241;BME280;31961;52.416;-0.732;2023-02-26T09:11:42;101898.58;;;1.91;100.00
46241;BME280;31961;52.416;-0.732;2023-02-26T09:14:09;101900.92;;;1.90;100.00
46241;BME280;31961;52.416;-0.732;2023-02-26T09:16:36;101907.86;;;1.57;100.00
46241;BME280;31961;52.416;-0.732;2023-02-26T09:19:04;101914.35;;;2.29;100.00
46241;BME280;31961;52.416;-0.732;2023-02-26T09:21:31;101911.84;;;2.40;100.00
46241;BME280;31961;52.416;-0.732;2023-02-26T09:23:58;101917.99;;;1.59;100.00
46241;BME280;31961;52.416;-0.732;2023-02-26T09:26:26;101917.23;;;2.92;100.00
46241;BME280;31961;52.416;-0.732;2023-02-26T09:28:53;101915.07;;;2.27;100.00
46241;BME280;31961;52.416;-0.732;2023-02-26T09:31:21;101922.92;;;2.37;100.00
46241;BME280;31961;52.416;-0.732;2023-02-26T09:33:47;101923.54;;;2.96;100.00
46241;BME280;31961;52.416;-0.732;2023-02-26T09:36:15;101924.37;;;3.49;100.00
46241;BME280;31961;52.416;-0.732;2023-02-26T09:38:43;101925.19;;;2.36;100.00
46241;BME280;31961;52.416;-0.732;2023-02-26T09:41:16;101932.78;;;2.15;100.00
46241;BME280;31961;52.416;-0.732;2023-02-26T09:43:55;101930.80;;;2.97;100.00
46241;BME280;31961;52.416;-0.732;2023-02-26T09:46:35;101932.85;;;3.34;100.00
46241;BME280;31961;52.416;-0.732;2023-02-26T09:49:14;101941.87;;;3.32;100.00
46241;BME280;31961;52.416;-0.732;2023-02-26T09:51:44;101945.24;;;3.61;100.00
46241;BME280;31961;52.416;-0.732;2023-02-26T09:54:16;101954.31;;;3.60;100.00
46241;BME280;31961;52.416;-0.732;2023-02-26T09:56:46;101955.89;;;3.35;100.00
46241;BME280;31961;52.416;-0.732;2023-02-26T09:59:14;101961.29;;;4.08;100.00
46241;BME280;31961;52.416;-0.732;2023-02-26T10:01:45;101960.29;;;3.40;100.00
46241;BME280;31961;52.416;-0.732;2023-02-26T10:04:23;101964.85;;;4.28;100.00
46241;BME280;31961;52.416;-0.732;2023-02-26T10:07:02;101968.35;;;3.85;100.00
46241;BME280;31961;52.416;-0.732;2023-02-26T10:09:41;101967.94;;;3.44;100.00
46241;BME280;31961;52.416;-0.732;2023-02-26T10:12:12;101970.82;;;4.05;100.00
46241;BME280;31961;52.416;-0.732;2023-02-26T10:14:46;101975.61;;;4.60;99.98
46241;BME280;31961;52.416;-0.732;2023-02-26T10:17:20;101979.36;;;4.76;97.36
46241;BME280;31961;52.416;-0.732;2023-02-26T10:19:52;101980.63;;;4.14;98.91
46241;BME280;31961;52.416;-0.732;2023-02-26T10:22:26;101982.89;;;4.96;96.35
46241;BME280;31961;52.416;-0.732;2023-02-26T10:24:59;101982.39;;;4.32;96.67
46241;BME280;31961;52.416;-0.732;2023-02-26T10:27:39;101982.96;;;4.35;89.00
46241;BME280;31961;52.416;-0.732;2023-02-26T10:30:13;101988.19;;;4.46;92.03
46241;BME280;31961;52.416;-0.732;2023-02-26T10:32:51;101989.63;;;4.42;91.08
46241;BME280;31961;52.416;-0.732;2023-02-26T10:35:22;101996.14;;;3.66;96.01
46241;BME280;31961;52.416;-0.732;2023-02-26T10:37:56;101993.31;;;4.10;91.46
46241;BME280;31961;52.416;-0.732;2023-02-26T10:40:27;101996.03;;;3.29;100.00
46241;BME280;31961;52.416;-0.732;2023-02-26T10:42:58;102000.43;;;4.02;94.83
46241;BME280;31961;52.416;-0.732;2023-02-26T10:45:35;102003.34;;;4.42;89.25
46241;BME280;31961;52.416;-0.732;2023-02-26T10:48:15;101999.88;;;4.44;84.09
46241;BME280;31961;52.416;-0.732;2023-02-26T10:50:50;102005.20;;;4.39;84.02
46241;BME280;31961;52.416;-0.732;2023-02-26T10:53:19;102003.21;;;3.93;82.72
46241;BME280;31961;52.416;-0.732;2023-02-26T10:55:51;101998.38;;;4.74;79.85
46241;BME280;31961;52.416;-0.732;2023-02-26T10:58:23;102005.23;;;4.61;79.97
46241;BME280;31961;52.416;-0.732;2023-02-26T11:00:52;102012.46;;;4.94;70.35
46241;BME280;31961;52.416;-0.732;2023-02-26T11:03:29;102014.87;;;4.84;70.07
46241;BME280;31961;52.416;-0.732;2023-02-26T11:05:57;102017.78;;;4.74;68.27
46241;BME280;31961;52.416;-0.732;2023-02-26T11:08:26;102017.32;;;4.53;72.30
46241;BME280;31961;52.416;-0.732;2023-02-26T11:10:56;102019.03;;;4.14;71.02
46241;BME280;31961;52.416;-0.732;2023-02-26T11:13:25;102020.94;;;4.15;71.05
46241;BME280;31961;52.416;-0.732;2023-02-26T11:15:55;102021.72;;;3.87;70.94
46241;BME280;31961;52.416;-0.732;2023-02-26T11:18:26;102026.80;;;3.27;77.59
46241;BME280;31961;52.416;-0.732;2023-02-26T11:20:57;102028.47;;;4.22;73.18
46241;BME280;31961;52.416;-0.732;2023-02-26T11:23:29;102032.30;;;4.10;74.43
46241;BME280;31961;52.416;-0.732;2023-02-26T11:26:02;102033.35;;;3.98;68.91
46241;BME280;31961;52.416;-0.732;2023-02-26T11:28:32;102035.24;;;4.36;71.34
46241;BME280;31961;52.416;-0.732;2023-02-26T11:31:05;102044.86;;;5.02;71.51
46241;BME280;31961;52.416;-0.732;2023-02-26T11:33:36;102042.01;;;5.38;63.18
46241;BME280;31961;52.416;-0.732;2023-02-26T11:36:09;102043.36;;;5.76;60.39
46241;BME280;31961;52.416;-0.732;2023-02-26T11:38:38;102031.16;;;5.95;59.73
46241;BME280;31961;52.416;-0.732;2023-02-26T11:41:06;102032.36;;;5.98;56.69
46241;BME280;31961;52.416;-0.732;2023-02-26T11:43:38;102046.70;;;5.09;60.11
46241;BME280;31961;52.416;-0.732;2023-02-26T11:46:05;102046.17;;;5.19;55.63
46241;BME280;31961;52.416;-0.732;2023-02-26T11:48:39;102041.51;;;6.01;54.94
46241;BME280;31961;52.416;-0.732;2023-02-26T11:51:12;102049.74;;;5.35;56.92
46241;BME280;31961;52.416;-0.732;2023-02-26T11:53:42;102046.28;;;5.53;58.35
46241;BME280;31961;52.416;-0.732;2023-02-26T11:56:14;102049.25;;;6.13;57.46
46241;BME280;31961;52.416;-0.732;2023-02-26T11:58:44;102047.11;;;6.01;62.73
46241;BME280;31961;52.416;-0.732;2023-02-26T12:01:15;102055.75;;;5.14;65.21
46241;BME280;31961;52.416;-0.732;2023-02-26T12:03:44;102054.48;;;5.26;57.06
46241;BME280;31961;52.416;-0.732;2023-02-26T12:06:16;102057.41;;;5.24;53.71
46241;BME280;31961;52.416;-0.732;2023-02-26T12:08:44;102059.57;;;5.95;51.53
46241;BME280;31961;52.416;-0.732;2023-02-26T12:11:31;102064.24;;;5.07;53.40
46241;BME280;31961;52.416;-0.732;2023-02-26T12:14:10;102055.78;;;5.14;55.20
46241;BME280;31961;52.416;-0.732;2023-02-26T12:16:49;102058.37;;;5.46;54.27
46241;BME280;31961;52.416;-0.732;2023-02-26T12:19:28;102059.61;;;5.41;54.46
46241;BME280;31961;52.416;-0.732;2023-02-26T12:22:11;102063.97;;;5.31;52.88
46241;BME280;31961;52.416;-0.732;2023-02-26T12:24:58;102067.42;;;5.47;53.92
46241;BME280;31961;52.416;-0.732;2023-02-26T12:27:35;102070.49;;;4.97;54.26
46241;BME280;31961;52.416;-0.732;2023-02-26T12:30:23;102064.30;;;6.09;53.48
46241;BME280;31961;52.416;-0.732;2023-02-26T12:33:06;102057.49;;;6.21;52.58
46241;BME280;31961;52.416;-0.732;2023-02-26T12:35:45;102059.37;;;6.47;53.67
46241;BME280;31961;52.416;-0.732;2023-02-26T12:38:20;102059.76;;;6.39;54.16
46241;BME280;31961;52.416;-0.732;2023-02-26T12:41:20;102064.96;;;6.36;55.05
46241;BME280;31961;52.416;-0.732;2023-02-26T12:43:50;102063.36;;;7.59;52.11
46241;BME280;31961;52.416;-0.732;2023-02-26T12:46:30;102065.68;;;6.75;51.86
46241;BME280;31961;52.416;-0.732;2023-02-26T12:49:16;102071.79;;;7.08;49.47
46241;BME280;31961;52.416;-0.732;2023-02-26T12:52:16;102072.44;;;7.44;48.96
46241;BME280;31961;52.416;-0.732;2023-02-26T12:55:06;102071.22;;;6.66;49.27
46241;BME280;31961;52.416;-0.732;2023-02-26T12:58:03;102071.09;;;5.92;48.48
46241;BME280;31961;52.416;-0.732;2023-02-26T13:00:48;102075.39;;;6.20;49.07